Time;durP1;ratioP1;P1;durP2;ratioP2;P2;SDS_P1;SDS_P2;PMS_P1;PMS_P2;Temp;Humidity;BMP_temperature;BMP_pressure;BME280_temperature;BME280_humidity;BME280_pressure;Samples;Min_cycle;Max_cycle;Signal;HPM_P1;HPM_P2
2023/10/17 02:07:36;;;;;;;1999.90;999.90;;;;;;;;;;4941399;29;20491;-66
2023/10/17 02:10:06;;;;;;;1999.90;999.90;;;;;;;;;;4930589;29;20079;-67
2023/10/17 02:12:33;;;;;;;1999.90;999.90;;;;;;;;;;4951226;29;20019;-64
2023/10/17 02:15:00;;;;;;;1999.90;999.90;;;;;;;;;;4952804;29;20027;-66
2023/10/17 02:17:27;;;;;;;1999.90;999.90;;;;;;;;;;4953769;29;20035;-66
2023/10/17 02:19:53;;;;;;;1999.90;999.90;;;;;;;;;;4953216;29;20023;-67
2023/10/17 02:22:20;;;;;;;1999.90;999.90;;;;;;;;;;4947038;29;20475;-66
2023/10/17 02:24:47;;;;;;;1999.90;999.90;;;;;;;;;;4947047;28;20098;-65
2023/10/17 02:27:13;;;;;;;1999.90;999.90;;;;;;;;;;4953295;29;20023;-67
2023/10/17 02:29:41;;;;;;;1999.90;999.90;;;;;;;;;;4953000;29;20486;-66
2023/10/17 02:32:13;;;;;;;1999.90;999.90;;;;;;;;;;4953342;29;20015;-64
2023/10/17 02:34:43;;;;;;;1999.90;999.90;;;;;;;;;;4953254;29;20058;-61
2023/10/17 02:37:16;;;;;;;1999.90;999.90;;;;;;;;;;4952983;29;20546;-62
2023/10/17 02:39:42;;;;;;;1999.90;999.90;;;;;;;;;;4955402;29;20038;-62
2023/10/17 02:42:09;;;;;;;1999.90;999.90;;;;;;;;;;4956357;29;20020;-65
2023/10/17 02:44:45;;;;;;;1999.90;999.90;;;;;;;;;;4953411;29;20035;-68
2023/10/17 02:47:12;;;;;;;1999.90;999.90;;;;;;;;;;4951904;29;20079;-65
2023/10/17 02:49:38;;;;;;;1999.90;999.90;;;;;;;;;;4953607;29;20035;-68
2023/10/17 02:52:05;;;;;;;1999.90;999.90;;;;;;;;;;4953121;29;20148;-67
2023/10/17 02:54:48;;;;;;;1999.90;999.90;;;;;;;;;;4953028;29;20023;-62
2023/10/17 02:57:16;;;;;;;1999.90;999.90;;;;;;;;;;4947859;29;20020;-64
2023/10/17 02:59:45;;;;;;;1999.90;999.90;;;;;;;;;;4953111;29;20019;-67
2023/10/17 03:02:11;;;;;;;1999.90;999.90;;;;;;;;;;4953313;29;20093;-65
2023/10/17 03:04:42;;;;;;;1999.90;999.90;;;;;;;;;;4953870;29;20035;-66
2023/10/17 03:07:11;;;;;;;1999.90;999.90;;;;;;;;;;4922377;29;20455;-63
2023/10/17 03:09:39;;;;;;;1999.90;999.90;;;;;;;;;;4916108;29;20135;-62
2023/10/17 03:14:49;;;;;;;1999.90;999.90;;;;;;;;;;4952422;29;20019;-62
2023/10/17 03:17:15;;;;;;;1999.90;999.90;;;;;;;;;;4949230;29;20023;-66
2023/10/17 03:19:41;;;;;;;1999.90;999.90;;;;;;;;;;4934007;29;20498;-67
2023/10/17 03:22:19;;;;;;;1999.90;999.90;;;;;;;;;;4951333;29;20491;-62
2023/10/17 03:24:45;;;;;;;1999.90;999.90;;;;;;;;;;4952438;29;20110;-66
2023/10/17 03:27:23;;;;;;;1999.90;999.90;;;;;;;;;;4952433;29;20383;-65
2023/10/17 03:29:49;;;;;;;1999.90;999.90;;;;;;;;;;4951931;29;20039;-65
2023/10/17 03:32:15;;;;;;;1999.90;999.90;;;;;;;;;;4951978;29;20102;-63
2023/10/17 03:34:45;;;;;;;1999.90;999.90;;;;;;;;;;4951881;29;20102;-63
2023/10/17 03:39:57;;;;;;;1999.90;999.90;;;;;;;;;;4951491;29;20058;-63
2023/10/17 03:45:13;;;;;;;1999.90;999.90;;;;;;;;;;4951634;29;20043;-64
2023/10/17 03:47:40;;;;;;;1999.90;999.90;;;;;;;;;;4935207;29;20541;-62
2023/10/17 03:50:10;;;;;;;1999.90;999.90;;;;;;;;;;4936029;29;20027;-65
2023/10/17 03:52:37;;;;;;;1999.90;999.90;;;;;;;;;;4931404;29;20050;-62
2023/10/17 03:55:10;;;;;;;1999.90;999.90;;;;;;;;;;4952002;29;20031;-62
2023/10/17 03:57:51;;;;;;;1999.90;999.90;;;;;;;;;;4952301;29;20046;-62
2023/10/17 04:00:25;;;;;;;1999.90;999.90;;;;;;;;;;4952413;29;20038;-64
2023/10/17 04:02:51;;;;;;;1999.90;999.90;;;;;;;;;;4953504;29;20493;-65
2023/10/17 04:05:18;;;;;;;1999.90;999.90;;;;;;;;;;4952617;28;20031;-62
2023/10/17 04:07:51;;;;;;;1999.90;999.90;;;;;;;;;;4954716;29;20051;-67
2023/10/17 04:10:22;;;;;;;1999.90;999.90;;;;;;;;;;4952703;29;20487;-61
2023/10/17 04:12:49;;;;;;;1999.90;999.90;;;;;;;;;;4952571;29;20027;-61
2023/10/17 04:15:18;;;;;;;1999.90;999.90;;;;;;;;;;4952228;29;20042;-66
2023/10/17 04:17:47;;;;;;;1999.90;999.90;;;;;;;;;;4952609;29;20078;-63
2023/10/17 04:20:16;;;;;;;1999.90;999.90;;;;;;;;;;4952517;29;20031;-64
2023/10/17 04:22:45;;;;;;;1999.90;999.90;;;;;;;;;;4952229;29;20019;-63
2023/10/17 04:25:34;;;;;;;1999.90;999.90;;;;;;;;;;4952232;29;20042;-64
2023/10/17 04:28:00;;;;;;;1999.90;999.90;;;;;;;;;;4952024;29;20042;-68
2023/10/17 04:30:30;;;;;;;1999.90;999.90;;;;;;;;;;4952671;29;20038;-68
2023/10/17 04:33:08;;;;;;;1999.90;999.90;;;;;;;;;;4952052;29;20388;-63
2023/10/17 04:35:35;;;;;;;1999.90;999.90;;;;;;;;;;4952134;29;20061;-63
2023/10/17 04:38:19;;;;;;;1999.90;999.90;;;;;;;;;;4954457;29;20035;-67
2023/10/17 04:41:01;;;;;;;1999.90;999.90;;;;;;;;;;4952470;29;20046;-64
2023/10/17 04:43:54;;;;;;;1999.90;999.90;;;;;;;;;;4952242;29;20027;-66
2023/10/17 04:46:25;;;;;;;1999.90;999.90;;;;;;;;;;4952192;29;20411;-67
2023/10/17 04:48:52;;;;;;;1999.90;999.90;;;;;;;;;;4952911;28;20046;-64
2023/10/17 04:53:50;;;;;;;1999.90;999.90;;;;;;;;;;4955485;29;20043;-65
2023/10/17 04:56:18;;;;;;;1999.90;999.90;;;;;;;;;;4956263;29;20035;-68
2023/10/17 04:58:57;;;;;;;1999.90;999.90;;;;;;;;;;4955085;29;20046;-69
2023/10/17 05:01:46;;;;;;;1999.90;999.90;;;;;;;;;;4953856;29;20039;-67
2023/10/17 05:04:19;;;;;;;1999.90;999.90;;;;;;;;;;4934085;29;20491;-68
2023/10/17 06:17:50;;;;;;;1999.90;999.90;;;;;;;;;;4953783;29;20407;-65
2023/10/17 06:20:19;;;;;;;1999.90;999.90;;;;;;;;;;4954332;29;20119;-65
2023/10/17 06:31:32;;;;;;;1999.90;999.90;;;;;;;;;;4953973;29;20094;-67
2023/10/17 06:33:35;;;;;;;1999.90;999.90;;;;;;;;;;4953090;29;20442;-66
2023/10/17 06:36:13;;;;;;;1999.90;999.90;;;;;;;;;;4936293;29;20477;-64
2023/10/17 06:38:46;;;;;;;1999.90;999.90;;;;;;;;;;4953506;29;20113;-65
2023/10/17 06:41:14;;;;;;;1999.90;999.90;;;;;;;;;;4953049;29;20030;-68
2023/10/17 06:43:46;;;;;;;1999.90;999.90;;;;;;;;;;4953321;29;20111;-65
2023/10/17 06:46:14;;;;;;;1999.90;999.90;;;;;;;;;;4935485;29;20028;-64
2023/10/17 06:48:49;;;;;;;1999.90;999.90;;;;;;;;;;4966002;28;20069;-68
2023/10/17 06:53:48;;;;;;;1999.90;999.90;;;;;;;;;;4971673;28;20046;-65
2023/10/17 06:56:15;;;;;;;1999.90;999.90;;;;;;;;;;4954419;28;20383;-68
2023/10/17 06:58:41;;;;;;;1999.90;999.90;;;;;;;;;;4972330;28;20027;-64
2023/10/17 07:01:19;;;;;;;1999.90;999.90;;;;;;;;;;4972238;28;20026;-65
2023/10/17 07:03:45;;;;;;;1999.90;999.90;;;;;;;;;;4972401;28;20035;-68
2023/10/17 07:06:12;;;;;;;1999.90;999.90;;;;;;;;;;4971872;28;20415;-67
2023/10/17 07:08:41;;;;;;;1999.90;999.90;;;;;;;;;;4973077;28;20058;-64
2023/10/17 07:11:18;;;;;;;1999.90;999.90;;;;;;;;;;4963688;28;20031;-64
2023/10/17 07:16:41;;;;;;;1999.90;999.90;;;;;;;;;;4946826;28;20030;-65
2023/10/17 07:24:26;;;;;;;1999.90;999.90;;;;;;;;;;4957058;28;20509;-63
2023/10/17 07:26:52;;;;;;;1999.90;999.90;;;;;;;;;;4960467;28;20134;-64
2023/10/17 07:29:22;;;;;;;1999.90;999.90;;;;;;;;;;4964259;28;20121;-66
2023/10/17 07:31:52;;;;;;;1999.90;999.90;;;;;;;;;;4960454;28;20047;-68
2023/10/17 07:34:21;;;;;;;1999.90;999.90;;;;;;;;;;4956429;28;20387;-67
2023/10/17 07:36:50;;;;;;;1999.90;999.90;;;;;;;;;;4962033;28;20030;-65
2023/10/17 07:39:22;;;;;;;1999.90;999.90;;;;;;;;;;4965588;28;20031;-68
2023/10/17 07:41:55;;;;;;;1999.90;999.90;;;;;;;;;;4962832;28;20553;-69
2023/10/17 07:44:26;;;;;;;1999.90;999.90;;;;;;;;;;4966569;28;20143;-64
2023/10/17 07:47:09;;;;;;;1999.90;999.90;;;;;;;;;;4968419;28;20036;-67
2023/10/17 07:49:42;;;;;;;1999.90;999.90;;;;;;;;;;4956005;28;20543;-67
2023/10/17 07:52:17;;;;;;;1999.90;999.90;;;;;;;;;;4951978;28;20029;-67
2023/10/17 07:55:16;;;;;;;1999.90;999.90;;;;;;;;;;4951998;28;20038;-65
2023/10/17 07:57:44;;;;;;;1999.90;999.90;;;;;;;;;;4953578;28;20042;-68
2023/10/17 08:03:00;;;;;;;1999.90;999.90;;;;;;;;;;4951750;29;20030;-64
2023/10/17 08:05:36;;;;;;;1999.90;999.90;;;;;;;;;;4932617;29;20061;-65
2023/10/17 08:08:08;;;;;;;1999.90;999.90;;;;;;;;;;4952298;29;20035;-66
2023/10/17 08:10:39;;;;;;;1999.90;999.90;;;;;;;;;;4958167;28;20058;-67
2023/10/17 08:13:11;;;;;;;1999.90;999.90;;;;;;;;;;4928045;29;20035;-65
2023/10/17 08:15:52;;;;;;;1999.90;999.90;;;;;;;;;;4952004;29;20105;-67
2023/10/17 08:18:22;;;;;;;1999.90;999.90;;;;;;;;;;4936449;29;20091;-67
2023/10/17 08:23:20;;;;;;;;;;;;;;;;;;4954621;28;20024;-65
2023/10/17 08:25:52;;;;;;;1999.90;999.90;;;;;;;;;;4955543;29;20031;-67
2023/10/17 08:28:46;;;;;;;;;;;;;;;;;;4957414;29;20053;-65
2023/10/17 08:34:09;;;;;;;1999.90;999.90;;;;;;;;;;4937942;29;20039;-68
2023/10/17 08:41:57;;;;;;;1999.90;999.90;;;;;;;;;;4956376;28;20023;-64
2023/10/17 08:44:28;;;;;;;1999.90;999.90;;;;;;;;;;4954358;29;20078;-65
2023/10/17 08:46:55;;;;;;;1999.90;999.90;;;;;;;;;;4955570;29;20498;-65
2023/10/17 08:49:21;;;;;;;1999.90;999.90;;;;;;;;;;4960832;28;20022;-68
2023/10/17 08:51:51;;;;;;;1999.90;999.90;;;;;;;;;;4963485;28;20035;-65
2023/10/17 08:54:20;;;;;;;1999.90;999.90;;;;;;;;;;4954886;28;20600;-65
2023/10/17 08:56:50;;;;;;;1999.90;999.90;;;;;;;;;;4954972;29;20027;-66
2023/10/17 08:59:16;;;;;;;1999.90;999.90;;;;;;;;;;4936466;29;20031;-64
2023/10/17 09:02:02;;;;;;;1999.90;999.90;;;;;;;;;;4946114;29;20474;-69
2023/10/17 09:04:33;;;;;;;1999.90;999.90;;;;;;;;;;4955294;29;20043;-66
2023/10/17 09:07:08;;;;;;;1999.90;999.90;;;;;;;;;;4955277;28;20055;-66
2023/10/17 09:09:34;;;;;;;1999.90;999.90;;;;;;;;;;4955807;29;20086;-65
2023/10/17 09:12:01;;;;;;;1999.90;999.90;;;;;;;;;;4955664;29;20526;-65
2023/10/17 09:14:29;;;;;;;1999.90;999.90;;;;;;;;;;4955662;29;20106;-64
2023/10/17 09:20:11;;;;;;;1999.90;999.90;;;;;;;;;;4858622;29;20138;-67
2023/10/17 09:22:38;;;;;;;1999.90;999.90;;;;;;;;;;4858850;29;20029;-65
2023/10/17 09:25:19;;;;;;;1999.90;999.90;;;;;;;;;;4858293;29;20050;-66
2023/10/17 09:27:49;;;;;;;1999.90;999.90;;;;;;;;;;4858440;29;20150;-66
2023/10/17 09:30:17;;;;;;;1999.90;999.90;;;;;;;;;;4858207;29;20053;-66
2023/10/17 09:32:44;;;;;;;1999.90;999.90;;;;;;;;;;4857408;29;20031;-68
2023/10/17 09:35:18;;;;;;;1999.90;999.90;;;;;;;;;;4856911;29;20493;-68
2023/10/17 09:37:56;;;;;;;1999.90;999.90;;;;;;;;;;4860275;29;20109;-69
2023/10/17 09:40:30;;;;;;;1999.90;999.90;;;;;;;;;;4842530;29;20025;-67
2023/10/17 09:42:56;;;;;;;;;;;;;;;;;;4857564;29;20116;-69
2023/10/17 09:45:22;;;;;;;1999.90;999.90;;;;;;;;;;4857386;29;20439;-69
2023/10/17 09:47:52;;;;;;;1999.90;999.90;;;;;;;;;;4855770;29;20029;-68
2023/10/17 09:50:21;;;;;;;1999.90;999.90;;;;;;;;;;4856116;29;20060;-69
2023/10/17 09:52:48;;;;;;;1999.90;999.90;;;;;;;;;;4856698;29;20029;-68
2023/10/17 09:55:17;;;;;;;1999.90;999.90;;;;;;;;;;4857970;29;20034;-68
2023/10/17 09:57:50;;;;;;;1999.90;999.90;;;;;;;;;;4957493;29;20054;-69
2023/10/17 10:00:16;;;;;;;1999.90;999.90;;;;;;;;;;4954753;29;20031;-68
2023/10/17 10:02:44;;;;;;;1999.90;999.90;;;;;;;;;;4954185;29;20467;-67
2023/10/17 10:05:21;;;;;;;1999.90;999.90;;;;;;;;;;4954174;29;20039;-69
2023/10/17 10:07:48;;;;;;;1999.90;999.90;;;;;;;;;;4954072;29;20407;-70
2023/10/17 10:10:34;;;;;;;1999.90;999.90;;;;;;;;;;4953773;29;20031;-69
2023/10/17 10:13:01;;;;;;;1999.90;999.90;;;;;;;;;;4954890;29;20415;-69
2023/10/17 10:16:02;;;;;;;1999.90;999.90;;;;;;;;;;4954131;29;20054;-66
2023/10/17 10:18:43;;;;;;;1999.90;999.90;;;;;;;;;;4912179;29;20032;-67
2023/10/17 10:21:12;;;;;;;1999.90;999.90;;;;;;;;;;4912809;29;20048;-69
2023/10/17 10:23:39;;;;;;;1999.90;999.90;;;;;;;;;;4913240;29;20579;-66
2023/10/17 10:26:10;;;;;;;1999.90;999.90;;;;;;;;;;4914872;29;20044;-65
2023/10/17 10:28:37;;;;;;;1999.90;999.90;;;;;;;;;;4922565;29;20036;-68
2023/10/17 10:31:29;;;;;;;1999.90;999.90;;;;;;;;;;4922742;29;20111;-66
2023/10/17 10:33:56;;;;;;;1999.90;999.90;;;;;;;;;;4922873;29;20035;-65
2023/10/17 10:36:25;;;;;;;1999.90;999.90;;;;;;;;;;4921256;29;20040;-69
2023/10/17 10:38:53;;;;;;;1999.90;999.90;;;;;;;;;;4921547;29;20063;-68
2023/10/17 10:41:22;;;;;;;1999.90;999.90;;;;;;;;;;4904944;29;20040;-70
2023/10/17 10:43:51;;;;;;;1999.90;999.90;;;;;;;;;;4911521;29;20035;-70
2023/10/17 10:46:17;;;;;;;1999.90;999.90;;;;;;;;;;4917405;29;20047;-66
2023/10/17 10:48:47;;;;;;;1999.90;999.90;;;;;;;;;;4913054;29;20103;-68
2023/10/17 10:51:16;;;;;;;1999.90;999.90;;;;;;;;;;4914584;29;20038;-66
2023/10/17 10:53:44;;;;;;;1999.90;999.90;;;;;;;;;;4956973;28;20041;-67
2023/10/17 10:56:11;;;;;;;1999.90;999.90;;;;;;;;;;4971216;28;20035;-67
2023/10/17 10:58:43;;;;;;;1999.90;999.90;;;;;;;;;;4968400;28;20027;-66
2023/10/17 11:01:10;;;;;;;1999.90;999.90;;;;;;;;;;4969969;28;20041;-66
2023/10/17 11:03:43;;;;;;;1999.90;999.90;;;;;;;;;;4954950;28;20443;-68
2023/10/17 11:06:09;;;;;;;1999.90;999.90;;;;;;;;;;4945032;28;20131;-66
2023/10/17 11:08:39;;;;;;;1999.90;999.90;;;;;;;;;;4953020;29;20751;-67
2023/10/17 11:11:05;;;;;;;1999.90;999.90;;;;;;;;;;4952967;29;20151;-71
2023/10/17 11:13:32;;;;;;;1999.90;999.90;;;;;;;;;;4952902;29;20027;-67
2023/10/17 11:15:59;;;;;;;1999.90;999.90;;;;;;;;;;4952694;29;20032;-68
2023/10/17 11:18:25;;;;;;;1999.90;999.90;;;;;;;;;;4955607;28;20087;-69
2023/10/17 11:20:55;;;;;;;1999.90;999.90;;;;;;;;;;4957300;28;20035;-68
2023/10/17 11:23:26;;;;;;;1999.90;999.90;;;;;;;;;;4953123;29;20023;-65
2023/10/17 11:25:53;;;;;;;1999.90;999.90;;;;;;;;;;4952661;29;20050;-68
2023/10/17 11:28:19;;;;;;;1999.90;999.90;;;;;;;;;;4955069;28;20023;-68
2023/10/17 11:30:47;;;;;;;1999.90;999.90;;;;;;;;;;4965729;28;20034;-68
2023/10/17 11:33:17;;;;;;;1999.90;999.90;;;;;;;;;;4957520;28;20019;-69
2023/10/17 11:35:50;;;;;;;1999.90;999.90;;;;;;;;;;4954141;29;20033;-69
2023/10/17 11:38:35;;;;;;;1999.90;999.90;;;;;;;;;;4952440;29;20045;-67
2023/10/17 11:41:06;;;;;;;1999.90;999.90;;;;;;;;;;4951610;29;20498;-67
2023/10/17 11:43:35;;;;;;;1999.90;999.90;;;;;;;;;;4953141;29;20094;-67
2023/10/17 11:46:03;;;;;;;1999.90;999.90;;;;;;;;;;4954973;28;20074;-70
2023/10/17 11:48:39;;;;;;;1999.90;999.90;;;;;;;;;;4950977;28;20486;-69
2023/10/17 11:51:13;;;;;;;1999.90;999.90;;;;;;;;;;4952751;29;20114;-68
2023/10/17 11:53:57;;;;;;;1999.90;999.90;;;;;;;;;;4952435;29;20033;-67
2023/10/17 11:56:23;;;;;;;1999.90;999.90;;;;;;;;;;4952389;29;20034;-68
2023/10/17 11:58:53;;;;;;;1999.90;999.90;;;;;;;;;;4951875;28;20386;-68
2023/10/17 12:01:19;;;;;;;1999.90;999.90;;;;;;;;;;4952409;29;20035;-67
2023/10/17 12:03:45;;;;;;;1999.90;999.90;;;;;;;;;;4952561;29;20403;-67
2023/10/17 12:06:15;;;;;;;1999.90;999.90;;;;;;;;;;4951994;28;20495;-67
2023/10/17 12:08:43;;;;;;;1999.90;999.90;;;;;;;;;;4952235;29;20049;-69
2023/10/17 12:11:09;;;;;;;1999.90;999.90;;;;;;;;;;4951689;29;20024;-68
2023/10/17 12:13:37;;;;;;;1999.90;999.90;;;;;;;;;;4952380;29;20061;-68
2023/10/17 12:16:08;;;;;;;1999.90;999.90;;;;;;;;;;4935146;29;20373;-68
2023/10/17 12:18:38;;;;;;;1999.90;999.90;;;;;;;;;;4952305;29;20395;-66
2023/10/17 12:21:14;;;;;;;1999.90;999.90;;;;;;;;;;4952236;29;20027;-67
2023/10/17 12:23:40;;;;;;;1999.90;999.90;;;;;;;;;;4952274;29;20023;-67
2023/10/17 12:26:19;;;;;;;1999.90;999.90;;;;;;;;;;4951992;29;20117;-68
2023/10/17 12:28:45;;;;;;;1999.90;999.90;;;;;;;;;;4952224;29;20497;-67
2023/10/17 12:31:16;;;;;;;1999.90;999.90;;;;;;;;;;4950738;29;20106;-68
2023/10/17 12:33:43;;;;;;;1999.90;999.90;;;;;;;;;;4951808;29;20464;-68
2023/10/17 12:36:09;;;;;;;1999.90;999.90;;;;;;;;;;4951548;29;20071;-68
2023/10/17 12:38:35;;;;;;;1999.90;999.90;;;;;;;;;;4951998;29;20031;-68
2023/10/17 12:41:03;;;;;;;1999.90;999.90;;;;;;;;;;4934591;29;20040;-68
2023/10/17 12:43:29;;;;;;;1999.90;999.90;;;;;;;;;;4952164;29;20530;-68
2023/10/17 12:45:55;;;;;;;1999.90;999.90;;;;;;;;;;4951419;29;20047;-68
2023/10/17 12:48:22;;;;;;;1999.90;999.90;;;;;;;;;;4951517;29;20435;-67
2023/10/17 12:50:48;;;;;;;1999.90;999.90;;;;;;;;;;4952931;29;20486;-69
2023/10/17 12:53:14;;;;;;;1999.90;999.90;;;;;;;;;;4951496;29;20031;-69
2023/10/17 12:55:43;;;;;;;1999.90;999.90;;;;;;;;;;4951999;29;20028;-69
2023/10/17 12:58:12;;;;;;;1999.90;999.90;;;;;;;;;;4951693;29;20077;-69
2023/10/17 13:00:39;;;;;;;1999.90;999.90;;;;;;;;;;4953173;29;20105;-68
2023/10/17 13:03:06;;;;;;;1999.90;999.90;;;;;;;;;;4951317;29;20031;-70
2023/10/17 13:05:32;;;;;;;1999.90;999.90;;;;;;;;;;4951198;28;20495;-68
2023/10/17 13:07:59;;;;;;;1999.90;999.90;;;;;;;;;;4950364;29;20178;-69
2023/10/17 13:10:26;;;;;;;1999.90;999.90;;;;;;;;;;4953647;28;20050;-68
2023/10/17 13:12:52;;;;;;;1999.90;999.90;;;;;;;;;;4955136;29;20050;-68
2023/10/17 13:15:18;;;;;;;1999.90;999.90;;;;;;;;;;4938339;29;20031;-68
2023/10/17 13:17:46;;;;;;;1999.90;999.90;;;;;;;;;;4938565;29;20538;-67
2023/10/17 13:20:14;;;;;;;1999.90;999.90;;;;;;;;;;4942073;28;20079;-69
2023/10/17 13:22:47;;;;;;;1999.90;999.90;;;;;;;;;;4920569;29;20476;-68
2023/10/17 13:25:13;;;;;;;1999.90;999.90;;;;;;;;;;4935765;29;20076;-69
2023/10/17 13:27:40;;;;;;;1999.90;999.90;;;;;;;;;;4935389;29;20122;-71
2023/10/17 13:30:06;;;;;;;1999.90;999.90;;;;;;;;;;4936143;29;20023;-71
2023/10/17 13:32:33;;;;;;;1999.90;999.90;;;;;;;;;;4955200;29;20027;-70
2023/10/17 13:34:59;;;;;;;1999.90;999.90;;;;;;;;;;4955136;29;20019;-71
2023/10/17 13:37:28;;;;;;;1999.90;999.90;;;;;;;;;;4955075;29;20039;-69
2023/10/17 13:39:55;;;;;;;1999.90;999.90;;;;;;;;;;4954705;29;20062;-68
2023/10/17 13:42:21;;;;;;;1999.90;999.90;;;;;;;;;;4954637;29;20028;-69
2023/10/17 13:44:47;;;;;;;1999.90;999.90;;;;;;;;;;4955335;29;20115;-71
2023/10/17 13:47:13;;;;;;;1999.90;999.90;;;;;;;;;;4955814;29;20023;-69
2023/10/17 13:49:39;;;;;;;1999.90;999.90;;;;;;;;;;4954850;29;20031;-67
2023/10/17 13:52:06;;;;;;;1999.90;999.90;;;;;;;;;;4953496;29;20545;-69
2023/10/17 13:54:34;;;;;;;1999.90;999.90;;;;;;;;;;4944887;29;20083;-69
2023/10/17 13:57:09;;;;;;;1999.90;999.90;;;;;;;;;;4943194;29;20419;-71
2023/10/17 13:59:39;;;;;;;1999.90;999.90;;;;;;;;;;4941041;29;20024;-71
2023/10/17 14:02:08;;;;;;;1999.90;999.90;;;;;;;;;;4940010;29;20033;-68
2023/10/17 14:04:38;;;;;;;1999.90;999.90;;;;;;;;;;4943968;29;20043;-70
2023/10/17 14:07:04;;;;;;;1999.90;999.90;;;;;;;;;;4946289;28;20047;-69
2023/10/17 14:09:30;;;;;;;1999.90;999.90;;;;;;;;;;4953175;28;20039;-70
2023/10/17 14:11:58;;;;;;;1999.90;999.90;;;;;;;;;;4952596;28;20107;-68
2023/10/17 14:14:29;;;;;;;1999.90;999.90;;;;;;;;;;4955088;28;20023;-69
2023/10/17 14:16:58;;;;;;;1999.90;999.90;;;;;;;;;;4953996;28;20475;-68
2023/10/17 14:19:37;;;;;;;1999.90;999.90;;;;;;;;;;4962169;28;20102;-69
2023/10/17 14:27:22;;;;;;;1999.90;999.90;;;;;;;;;;4949876;28;20107;-68
2023/10/17 14:29:49;;;;;;;1999.90;999.90;;;;;;;;;;4951499;28;20023;-68
2023/10/17 14:32:20;;;;;;;1999.90;999.90;;;;;;;;;;4958200;28;20139;-68
2023/10/17 14:34:47;;;;;;;1999.90;999.90;;;;;;;;;;4955152;28;20075;-68
2023/10/17 14:37:17;;;;;;;1999.90;999.90;;;;;;;;;;4940755;28;20087;-69
2023/10/17 14:39:44;;;;;;;1999.90;999.90;;;;;;;;;;4952386;28;20027;-68
2023/10/17 14:42:19;;;;;;;1999.90;999.90;;;;;;;;;;4930113;28;20028;-70
2023/10/17 14:44:46;;;;;;;1999.90;999.90;;;;;;;;;;4951558;28;20038;-68
2023/10/17 14:47:16;;;;;;;1999.90;999.90;;;;;;;;;;4933944;29;20024;-71
2023/10/17 14:49:43;;;;;;;1999.90;999.90;;;;;;;;;;4950621;28;20069;-70
2023/10/17 14:52:11;;;;;;;1999.90;999.90;;;;;;;;;;4933924;29;20140;-69
2023/10/17 14:54:37;;;;;;;1999.90;999.90;;;;;;;;;;4933868;29;20039;-70
2023/10/17 14:57:06;;;;;;;1999.90;999.90;;;;;;;;;;4944281;28;20103;-71
2023/10/17 14:59:38;;;;;;;1999.90;999.90;;;;;;;;;;4954665;28;20023;-67
2023/10/17 15:02:05;;;;;;;1999.90;999.90;;;;;;;;;;4944214;28;20456;-68
2023/10/17 15:04:31;;;;;;;1999.90;999.90;;;;;;;;;;4943100;29;20122;-69
2023/10/17 15:06:58;;;;;;;1999.90;999.90;;;;;;;;;;4952687;28;20491;-71
2023/10/17 15:09:26;;;;;;;1999.90;999.90;;;;;;;;;;4952189;29;20031;-71
2023/10/17 15:11:53;;;;;;;1999.90;999.90;;;;;;;;;;4952831;29;20801;-68
2023/10/17 15:14:19;;;;;;;1999.90;999.90;;;;;;;;;;4953101;29;20035;-69
2023/10/17 15:16:45;;;;;;;1999.90;999.90;;;;;;;;;;4953117;29;20034;-69
2023/10/17 15:19:11;;;;;;;1999.90;999.90;;;;;;;;;;4952997;29;20065;-68
2023/10/17 15:21:37;;;;;;;1999.90;999.90;;;;;;;;;;4952776;29;20031;-68
2023/10/17 15:24:04;;;;;;;1999.90;999.90;;;;;;;;;;4966796;28;20035;-71
2023/10/17 15:26:31;;;;;;;1999.90;999.90;;;;;;;;;;4971588;28;20049;-71
2023/10/17 15:28:57;;;;;;;1999.90;999.90;;;;;;;;;;4954247;28;20040;-70
2023/10/17 15:31:26;;;;;;;1999.90;999.90;;;;;;;;;;4971580;28;20026;-69
2023/10/17 15:33:52;;;;;;;1999.90;999.90;;;;;;;;;;4971264;28;20095;-68
2023/10/17 15:36:24;;;;;;;1999.90;999.90;;;;;;;;;;4971414;28;20030;-68
2023/10/17 15:38:50;;;;;;;1999.90;999.90;;;;;;;;;;4971553;28;20391;-69
2023/10/17 15:41:16;;;;;;;1999.90;999.90;;;;;;;;;;4971130;28;20027;-68
2023/10/17 15:43:42;;;;;;;1999.90;999.90;;;;;;;;;;4970874;28;20046;-69
2023/10/17 15:46:13;;;;;;;1999.90;999.90;;;;;;;;;;4956946;28;20150;-68
2023/10/17 15:48:39;;;;;;;1999.90;999.90;;;;;;;;;;4951457;29;20031;-70
2023/10/17 15:51:05;;;;;;;1999.90;999.90;;;;;;;;;;4950573;29;20074;-69
2023/10/17 15:53:32;;;;;;;1999.90;999.90;;;;;;;;;;4951302;29;20058;-70
2023/10/17 15:56:00;;;;;;;1999.90;999.90;;;;;;;;;;4952211;29;20039;-70
2023/10/17 15:58:27;;;;;;;1999.90;999.90;;;;;;;;;;4951780;29;20498;-69
2023/10/17 16:00:54;;;;;;;1999.90;999.90;;;;;;;;;;4952023;29;20081;-70
2023/10/17 16:03:21;;;;;;;1999.90;999.90;;;;;;;;;;4951612;29;20027;-70
2023/10/17 16:05:51;;;;;;;1999.90;999.90;;;;;;;;;;4951386;28;20450;-70
2023/10/17 16:08:18;;;;;;;1999.90;999.90;;;;;;;;;;4951269;29;20050;-69
2023/10/17 16:10:45;;;;;;;1999.90;999.90;;;;;;;;;;4952069;29;20050;-68
2023/10/17 16:13:11;;;;;;;1999.90;999.90;;;;;;;;;;4951762;29;20100;-69
2023/10/17 16:15:38;;;;;;;1999.90;999.90;;;;;;;;;;4952109;29;20023;-69
2023/10/17 16:18:05;;;;;;;1999.90;999.90;;;;;;;;;;4951992;29;20019;-69
2023/10/17 16:20:32;;;;;;;1999.90;999.90;;;;;;;;;;4951432;29;20027;-68
2023/10/17 16:22:59;;;;;;;1999.90;999.90;;;;;;;;;;4934497;29;20301;-70
2023/10/17 16:25:25;;;;;;;1999.90;999.90;;;;;;;;;;4951603;29;20582;-70
2023/10/17 16:27:52;;;;;;;1999.90;999.90;;;;;;;;;;4933964;29;20027;-70
2023/10/17 16:30:20;;;;;;;1999.90;999.90;;;;;;;;;;4951574;29;20031;-68
2023/10/17 16:32:46;;;;;;;1999.90;999.90;;;;;;;;;;4951885;29;20051;-67
2023/10/17 16:35:16;;;;;;;1999.90;999.90;;;;;;;;;;4951091;28;20035;-68
2023/10/17 16:37:42;;;;;;;1999.90;999.90;;;;;;;;;;4951731;28;20194;-69
2023/10/17 16:40:11;;;;;;;1999.90;999.90;;;;;;;;;;4949929;28;20454;-68
2023/10/17 16:42:38;;;;;;;1999.90;999.90;;;;;;;;;;4946847;28;20724;-72
2023/10/17 16:45:05;;;;;;;1999.90;999.90;;;;;;;;;;4955847;28;20069;-70
2023/10/17 16:47:31;;;;;;;1999.90;999.90;;;;;;;;;;4954671;28;20034;-69
2023/10/17 16:49:57;;;;;;;1999.90;999.90;;;;;;;;;;4957311;28;20097;-69
2023/10/17 16:52:24;;;;;;;1999.90;999.90;;;;;;;;;;4955003;28;20056;-70
2023/10/17 16:54:50;;;;;;;1999.90;999.90;;;;;;;;;;4962831;28;20038;-69
2023/10/17 16:57:16;;;;;;;1999.90;999.90;;;;;;;;;;4957670;28;20039;-69
2023/10/17 16:59:44;;;;;;;1999.90;999.90;;;;;;;;;;4974977;28;20033;-69
2023/10/17 17:02:10;;;;;;;1999.90;999.90;;;;;;;;;;4975349;28;20023;-68
2023/10/17 17:04:37;;;;;;;1999.90;999.90;;;;;;;;;;4943353;28;20069;-69
2023/10/17 17:07:05;;;;;;;1999.90;999.90;;;;;;;;;;4947577;29;20047;-68
2023/10/17 17:09:32;;;;;;;1999.90;999.90;;;;;;;;;;4949147;28;20520;-70
2023/10/17 17:11:58;;;;;;;1999.90;999.90;;;;;;;;;;4932530;28;20020;-68
2023/10/17 17:14:25;;;;;;;1999.90;999.90;;;;;;;;;;4956166;28;20549;-68
2023/10/17 17:16:54;;;;;;;1999.90;999.90;;;;;;;;;;4955249;28;20038;-67
2023/10/17 17:19:27;;;;;;;1999.90;999.90;;;;;;;;;;4955848;28;20450;-69
2023/10/17 17:21:53;;;;;;;1999.90;999.90;;;;;;;;;;4955951;28;20023;-70
2023/10/17 17:24:20;;;;;;;1999.90;999.90;;;;;;;;;;4956760;28;20067;-71
2023/10/17 17:26:49;;;;;;;1999.90;999.90;;;;;;;;;;4958461;28;20039;-69
2023/10/17 17:29:15;;;;;;;1999.90;999.90;;;;;;;;;;4967785;28;20020;-69
2023/10/17 17:31:42;;;;;;;1999.90;999.90;;;;;;;;;;4958590;28;20031;-72
2023/10/17 17:34:11;;;;;;;1999.90;999.90;;;;;;;;;;4937609;28;20106;-70
2023/10/17 17:36:37;;;;;;;1999.90;999.90;;;;;;;;;;4952956;28;20134;-71
2023/10/17 17:39:08;;;;;;;1999.90;999.90;;;;;;;;;;4942421;28;20384;-70
2023/10/17 17:41:37;;;;;;;1999.90;999.90;;;;;;;;;;4935879;29;20062;-68
2023/10/17 17:44:03;;;;;;;1999.90;999.90;;;;;;;;;;4939960;28;20020;-69
2023/10/17 17:46:29;;;;;;;1999.90;999.90;;;;;;;;;;4946332;28;20038;-69
2023/10/17 17:48:55;;;;;;;1999.90;999.90;;;;;;;;;;4935571;29;20036;-69
2023/10/17 17:51:21;;;;;;;1999.90;999.90;;;;;;;;;;4935299;29;20020;-69
2023/10/17 17:53:47;;;;;;;1999.90;999.90;;;;;;;;;;4951192;28;20117;-71
2023/10/17 17:56:17;;;;;;;1999.90;999.90;;;;;;;;;;4951440;28;20068;-72
2023/10/17 17:58:47;;;;;;;1999.90;999.90;;;;;;;;;;4932299;29;20027;-70
2023/10/17 18:01:13;;;;;;;1999.90;999.90;;;;;;;;;;4952423;28;20034;-71
2023/10/17 18:03:40;;;;;;;1999.90;999.90;;;;;;;;;;4954969;28;20038;-72